sensor_id;sensor_type;location;lat;lon;timestamp;temperature;humidity
16966;DHT22;8599;47.852;12.070;2023-05-19T00:01:27;10.60;99.90
16966;DHT22;8599;47.852;12.070;2023-05-19T00:03:55;10.60;99.90
16966;DHT22;8599;47.852;12.070;2023-05-19T00:06:24;10.60;99.90
16966;DHT22;8599;47.852;12.070;2023-05-19T00:08:56;10.50;99.90
16966;DHT22;8599;47.852;12.070;2023-05-19T00:11:24;10.60;99.90
16966;DHT22;8599;47.852;12.070;2023-05-19T00:13:52;10.60;99.90
16966;DHT22;8599;47.852;12.070;2023-05-19T00:16:20;10.60;99.90
16966;DHT22;8599;47.852;12.070;2023-05-19T00:18:47;10.60;99.90
16966;DHT22;8599;47.852;12.070;2023-05-19T00:21:14;10.50;99.90
16966;DHT22;8599;47.852;12.070;2023-05-19T00:23:41;10.50;99.90
16966;DHT22;8599;47.852;12.070;2023-05-19T00:26:07;10.50;99.90
16966;DHT22;8599;47.852;12.070;2023-05-19T00:28:36;10.50;99.90
16966;DHT22;8599;47.852;12.070;2023-05-19T00:31:04;10.50;99.90
16966;DHT22;8599;47.852;12.070;2023-05-19T00:33:31;10.50;99.90
16966;DHT22;8599;47.852;12.070;2023-05-19T00:35:58;10.50;99.90
16966;DHT22;8599;47.852;12.070;2023-05-19T00:38:27;10.60;99.90
16966;DHT22;8599;47.852;12.070;2023-05-19T00:40:54;10.50;99.90
16966;DHT22;8599;47.852;12.070;2023-05-19T00:43:21;10.40;99.90
16966;DHT22;8599;47.852;12.070;2023-05-19T00:45:49;10.40;99.90
16966;DHT22;8599;47.852;12.070;2023-05-19T00:48:16;10.40;99.90
16966;DHT22;8599;47.852;12.070;2023-05-19T00:50:43;10.40;99.90
16966;DHT22;8599;47.852;12.070;2023-05-19T00:53:11;10.40;99.90
16966;DHT22;8599;47.852;12.070;2023-05-19T00:55:38;10.40;99.90
16966;DHT22;8599;47.852;12.070;2023-05-19T00:58:06;10.40;99.90
16966;DHT22;8599;47.852;12.070;2023-05-19T01:00:35;10.40;99.90
16966;DHT22;8599;47.852;12.070;2023-05-19T01:03:05;10.50;99.90
16966;DHT22;8599;47.852;12.070;2023-05-19T01:05:36;10.50;99.90
16966;DHT22;8599;47.852;12.070;2023-05-19T01:08:03;10.50;99.90
16966;DHT22;8599;47.852;12.070;2023-05-19T01:10:30;10.50;99.90
16966;DHT22;8599;47.852;12.070;2023-05-19T01:12:57;10.50;99.90
16966;DHT22;8599;47.852;12.070;2023-05-19T01:15:26;10.50;99.90
16966;DHT22;8599;47.852;12.070;2023-05-19T01:17:57;10.40;99.90
16966;DHT22;8599;47.852;12.070;2023-05-19T01:20:35;10.40;99.90
16966;DHT22;8599;47.852;12.070;2023-05-19T01:23:16;10.50;99.90
16966;DHT22;8599;47.852;12.070;2023-05-19T01:26:21;10.50;99.90
16966;DHT22;8599;47.852;12.070;2023-05-19T01:29:11;10.50;99.90
16966;DHT22;8599;47.852;12.070;2023-05-19T01:31:44;10.50;99.90
16966;DHT22;8599;47.852;12.070;2023-05-19T01:34:12;10.40;99.90
16966;DHT22;8599;47.852;12.070;2023-05-19T01:36:40;10.50;99.90
16966;DHT22;8599;47.852;12.070;2023-05-19T01:39:09;10.50;99.90
16966;DHT22;8599;47.852;12.070;2023-05-19T01:41:37;10.50;99.90
16966;DHT22;8599;47.852;12.070;2023-05-19T01:44:07;10.50;99.90
16966;DHT22;8599;47.852;12.070;2023-05-19T01:46:34;10.50;99.90
16966;DHT22;8599;47.852;12.070;2023-05-19T01:49:03;10.60;99.90
16966;DHT22;8599;47.852;12.070;2023-05-19T01:51:31;10.60;99.90
16966;DHT22;8599;47.852;12.070;2023-05-19T01:53:58;10.70;99.90
16966;DHT22;8599;47.852;12.070;2023-05-19T01:56:33;10.60;99.90
16966;DHT22;8599;47.852;12.070;2023-05-19T01:59:12;10.60;99.90
16966;DHT22;8599;47.852;12.070;2023-05-19T02:01:47;10.70;99.90
16966;DHT22;8599;47.852;12.070;2023-05-19T02:04:24;10.70;99.90
16966;DHT22;8599;47.852;12.070;2023-05-19T02:07:00;10.80;99.90
16966;DHT22;8599;47.852;12.070;2023-05-19T02:09:38;10.70;99.90
16966;DHT22;8599;47.852;12.070;2023-05-19T02:12:10;10.70;99.90
16966;DHT22;8599;47.852;12.070;2023-05-19T02:14:44;10.70;99.90
16966;DHT22;8599;47.852;12.070;2023-05-19T02:17:12;10.60;99.90
16966;DHT22;8599;47.852;12.070;2023-05-19T02:19:42;10.60;99.90
16966;DHT22;8599;47.852;12.070;2023-05-19T02:22:09;10.60;99.90
16966;DHT22;8599;47.852;12.070;2023-05-19T02:24:35;10.60;99.90
16966;DHT22;8599;47.852;12.070;2023-05-19T02:27:04;10.50;99.90
16966;DHT22;8599;47.852;12.070;2023-05-19T02:29:31;10.50;99.90
16966;DHT22;8599;47.852;12.070;2023-05-19T02:31:59;10.40;99.90
16966;DHT22;8599;47.852;12.070;2023-05-19T02:34:26;10.40;99.90
16966;DHT22;8599;47.852;12.070;2023-05-19T02:36:54;10.40;99.90
16966;DHT22;8599;47.852;12.070;2023-05-19T02:39:21;10.30;99.90
16966;DHT22;8599;47.852;12.070;2023-05-19T02:41:48;10.30;99.90
16966;DHT22;8599;47.852;12.070;2023-05-19T02:44:14;10.20;99.90
16966;DHT22;8599;47.852;12.070;2023-05-19T02:46:41;10.20;99.90
16966;DHT22;8599;47.852;12.070;2023-05-19T02:49:08;10.20;99.90
16966;DHT22;8599;47.852;12.070;2023-05-19T02:51:35;10.20;99.90
16966;DHT22;8599;47.852;12.070;2023-05-19T02:54:04;10.20;99.90
16966;DHT22;8599;47.852;12.070;2023-05-19T02:56:30;10.10;99.90
16966;DHT22;8599;47.852;12.070;2023-05-19T02:58:57;10.10;99.90
16966;DHT22;8599;47.852;12.070;2023-05-19T03:01:24;10.10;99.90
16966;DHT22;8599;47.852;12.070;2023-05-19T03:03:51;10.10;99.90
16966;DHT22;8599;47.852;12.070;2023-05-19T03:06:18;10.10;99.90
16966;DHT22;8599;47.852;12.070;2023-05-19T03:08:48;10.20;99.90
16966;DHT22;8599;47.852;12.070;2023-05-19T03:11:16;10.20;99.90
16966;DHT22;8599;47.852;12.070;2023-05-19T03:13:42;10.30;99.90
16966;DHT22;8599;47.852;12.070;2023-05-19T03:16:09;10.20;99.90
16966;DHT22;8599;47.852;12.070;2023-05-19T03:18:37;10.20;99.90
16966;DHT22;8599;47.852;12.070;2023-05-19T03:21:04;10.20;99.90
16966;DHT22;8599;47.852;12.070;2023-05-19T03:23:31;10.20;99.90
16966;DHT22;8599;47.852;12.070;2023-05-19T03:25:57;10.10;99.90
16966;DHT22;8599;47.852;12.070;2023-05-19T03:28:27;10.10;99.90
16966;DHT22;8599;47.852;12.070;2023-05-19T03:30:53;10.10;99.90
16966;DHT22;8599;47.852;12.070;2023-05-19T03:33:20;10.10;99.90
16966;DHT22;8599;47.852;12.070;2023-05-19T03:35:48;10.10;99.90
16966;DHT22;8599;47.852;12.070;2023-05-19T03:38:15;10.00;99.90
16966;DHT22;8599;47.852;12.070;2023-05-19T03:40:42;10.00;99.90
16966;DHT22;8599;47.852;12.070;2023-05-19T03:43:09;9.90;99.90
16966;DHT22;8599;47.852;12.070;2023-05-19T03:45:37;10.00;99.90
16966;DHT22;8599;47.852;12.070;2023-05-19T03:48:05;9.90;99.90
16966;DHT22;8599;47.852;12.070;2023-05-19T03:50:31;9.80;99.90
16966;DHT22;8599;47.852;12.070;2023-05-19T03:52:58;9.80;99.90
16966;DHT22;8599;47.852;12.070;2023-05-19T03:55:25;9.80;99.90
16966;DHT22;8599;47.852;12.070;2023-05-19T03:57:54;9.90;99.90
16966;DHT22;8599;47.852;12.070;2023-05-19T04:00:21;9.90;99.90
16966;DHT22;8599;47.852;12.070;2023-05-19T04:02:50;10.00;99.90
16966;DHT22;8599;47.852;12.070;2023-05-19T04:05:16;10.00;99.90
16966;DHT22;8599;47.852;12.070;2023-05-19T04:07:43;10.10;99.90
16966;DHT22;8599;47.852;12.070;2023-05-19T04:10:11;10.10;99.90
16966;DHT22;8599;47.852;12.070;2023-05-19T04:12:38;10.10;99.90
16966;DHT22;8599;47.852;12.070;2023-05-19T04:15:06;10.10;99.90
16966;DHT22;8599;47.852;12.070;2023-05-19T04:17:35;10.10;99.90
16966;DHT22;8599;47.852;12.070;2023-05-19T04:20:05;10.00;99.90
16966;DHT22;8599;47.852;12.070;2023-05-19T04:22:32;10.10;99.90
16966;DHT22;8599;47.852;12.070;2023-05-19T04:24:59;10.10;99.90
16966;DHT22;8599;47.852;12.070;2023-05-19T04:27:26;10.10;99.90
16966;DHT22;8599;47.852;12.070;2023-05-19T04:29:54;10.10;99.90
16966;DHT22;8599;47.852;12.070;2023-05-19T04:32:22;10.20;99.90
16966;DHT22;8599;47.852;12.070;2023-05-19T04:34:50;10.30;99.90
16966;DHT22;8599;47.852;12.070;2023-05-19T04:37:18;10.20;99.90
16966;DHT22;8599;47.852;12.070;2023-05-19T04:39:45;10.30;99.90
16966;DHT22;8599;47.852;12.070;2023-05-19T04:42:12;10.40;99.90
16966;DHT22;8599;47.852;12.070;2023-05-19T04:44:43;10.50;99.90
16966;DHT22;8599;47.852;12.070;2023-05-19T04:47:10;10.50;99.90
16966;DHT22;8599;47.852;12.070;2023-05-19T04:49:37;10.40;99.90
16966;DHT22;8599;47.852;12.070;2023-05-19T04:52:05;10.40;99.90
16966;DHT22;8599;47.852;12.070;2023-05-19T04:54:37;10.40;99.90
16966;DHT22;8599;47.852;12.070;2023-05-19T04:57:05;10.50;99.90
16966;DHT22;8599;47.852;12.070;2023-05-19T04:59:32;10.40;99.90
16966;DHT22;8599;47.852;12.070;2023-05-19T05:01:58;10.40;99.90
16966;DHT22;8599;47.852;12.070;2023-05-19T05:04:25;10.50;99.90
16966;DHT22;8599;47.852;12.070;2023-05-19T05:06:52;10.50;99.90
16966;DHT22;8599;47.852;12.070;2023-05-19T05:09:19;10.70;99.90
16966;DHT22;8599;47.852;12.070;2023-05-19T05:11:48;10.70;99.90
16966;DHT22;8599;47.852;12.070;2023-05-19T05:14:16;10.80;99.90
16966;DHT22;8599;47.852;12.070;2023-05-19T05:16:43;10.90;99.90
16966;DHT22;8599;47.852;12.070;2023-05-19T05:19:11;11.00;99.90
16966;DHT22;8599;47.852;12.070;2023-05-19T05:21:38;11.10;99.90
16966;DHT22;8599;47.852;12.070;2023-05-19T05:24:07;11.20;99.90
16966;DHT22;8599;47.852;12.070;2023-05-19T05:26:34;11.00;99.90
16966;DHT22;8599;47.852;12.070;2023-05-19T05:29:03;11.10;99.90
16966;DHT22;8599;47.852;12.070;2023-05-19T05:31:31;11.20;99.90
16966;DHT22;8599;47.852;12.070;2023-05-19T05:33:58;11.10;99.90
16966;DHT22;8599;47.852;12.070;2023-05-19T05:36:25;11.30;99.90
16966;DHT22;8599;47.852;12.070;2023-05-19T05:38:51;11.40;99.90
16966;DHT22;8599;47.852;12.070;2023-05-19T05:41:18;11.40;99.90
16966;DHT22;8599;47.852;12.070;2023-05-19T05:43:46;11.30;99.90
16966;DHT22;8599;47.852;12.070;2023-05-19T05:46:15;11.20;99.90
16966;DHT22;8599;47.852;12.070;2023-05-19T05:48:42;11.30;99.90
16966;DHT22;8599;47.852;12.070;2023-05-19T05:51:10;11.30;99.90
16966;DHT22;8599;47.852;12.070;2023-05-19T05:53:40;11.40;99.90
16966;DHT22;8599;47.852;12.070;2023-05-19T05:56:11;11.40;99.90
16966;DHT22;8599;47.852;12.070;2023-05-19T05:58:38;11.50;99.90
16966;DHT22;8599;47.852;12.070;2023-05-19T06:01:05;11.50;99.90
16966;DHT22;8599;47.852;12.070;2023-05-19T06:03:38;11.50;99.90
16966;DHT22;8599;47.852;12.070;2023-05-19T06:06:06;11.60;99.90
16966;DHT22;8599;47.852;12.070;2023-05-19T06:08:33;11.40;99.90
16966;DHT22;8599;47.852;12.070;2023-05-19T06:11:00;11.50;99.90
16966;DHT22;8599;47.852;12.070;2023-05-19T06:13:32;11.40;99.90
16966;DHT22;8599;47.852;12.070;2023-05-19T06:15:59;11.30;99.90
16966;DHT22;8599;47.852;12.070;2023-05-19T06:18:26;11.20;99.90
16966;DHT22;8599;47.852;12.070;2023-05-19T06:20:54;11.40;99.90
16966;DHT22;8599;47.852;12.070;2023-05-19T06:23:21;11.40;99.90
16966;DHT22;8599;47.852;12.070;2023-05-19T06:25:48;11.40;99.90
16966;DHT22;8599;47.852;12.070;2023-05-19T06:28:15;11.40;99.90
16966;DHT22;8599;47.852;12.070;2023-05-19T06:30:42;11.30;99.90
16966;DHT22;8599;47.852;12.070;2023-05-19T06:33:09;11.20;99.90
16966;DHT22;8599;47.852;12.070;2023-05-19T06:35:36;11.20;99.90
16966;DHT22;8599;47.852;12.070;2023-05-19T06:38:04;11.00;99.90
16966;DHT22;8599;47.852;12.070;2023-05-19T06:40:31;11.10;99.90
16966;DHT22;8599;47.852;12.070;2023-05-19T06:42:58;11.30;99.90
16966;DHT22;8599;47.852;12.070;2023-05-19T06:45:25;11.40;99.90
16966;DHT22;8599;47.852;12.070;2023-05-19T06:47:51;11.30;99.90
16966;DHT22;8599;47.852;12.070;2023-05-19T06:50:19;11.30;99.90
16966;DHT22;8599;47.852;12.070;2023-05-19T06:52:46;11.30;99.90
16966;DHT22;8599;47.852;12.070;2023-05-19T06:55:14;11.40;99.90
16966;DHT22;8599;47.852;12.070;2023-05-19T06:57:41;11.50;99.90
16966;DHT22;8599;47.852;12.070;2023-05-19T07:00:09;11.60;99.90
16966;DHT22;8599;47.852;12.070;2023-05-19T07:02:36;11.50;99.90
16966;DHT22;8599;47.852;12.070;2023-05-19T07:05:04;11.60;99.90
16966;DHT22;8599;47.852;12.070;2023-05-19T07:07:30;11.70;99.90
16966;DHT22;8599;47.852;12.070;2023-05-19T07:09:57;11.90;99.90
16966;DHT22;8599;47.852;12.070;2023-05-19T07:12:25;12.10;99.90
16966;DHT22;8599;47.852;12.070;2023-05-19T07:14:52;12.30;99.90
16966;DHT22;8599;47.852;12.070;2023-05-19T07:17:19;12.50;99.90
16966;DHT22;8599;47.852;12.070;2023-05-19T07:19:46;12.80;99.90
16966;DHT22;8599;47.852;12.070;2023-05-19T07:22:13;12.90;99.90
16966;DHT22;8599;47.852;12.070;2023-05-19T07:24:40;12.90;99.90
16966;DHT22;8599;47.852;12.070;2023-05-19T07:27:08;13.00;99.90
16966;DHT22;8599;47.852;12.070;2023-05-19T07:29:36;12.90;99.90
16966;DHT22;8599;47.852;12.070;2023-05-19T07:32:03;12.70;99.90
16966;DHT22;8599;47.852;12.070;2023-05-19T07:34:30;12.60;99.90
16966;DHT22;8599;47.852;12.070;2023-05-19T07:36:57;12.70;99.90
16966;DHT22;8599;47.852;12.070;2023-05-19T07:39:24;12.60;99.90
16966;DHT22;8599;47.852;12.070;2023-05-19T07:41:54;12.60;99.90
16966;DHT22;8599;47.852;12.070;2023-05-19T07:44:20;12.60;99.90
16966;DHT22;8599;47.852;12.070;2023-05-19T07:46:48;12.80;99.90
16966;DHT22;8599;47.852;12.070;2023-05-19T07:49:15;12.90;99.90
16966;DHT22;8599;47.852;12.070;2023-05-19T07:51:42;13.00;99.90
16966;DHT22;8599;47.852;12.070;2023-05-19T07:54:09;13.20;99.90
16966;DHT22;8599;47.852;12.070;2023-05-19T07:56:36;13.50;99.90
16966;DHT22;8599;47.852;12.070;2023-05-19T07:59:03;13.70;99.90
16966;DHT22;8599;47.852;12.070;2023-05-19T08:04:01;13.40;99.90
16966;DHT22;8599;47.852;12.070;2023-05-19T08:06:27;13.30;99.90
16966;DHT22;8599;47.852;12.070;2023-05-19T08:08:56;13.10;99.90
16966;DHT22;8599;47.852;12.070;2023-05-19T08:11:23;13.00;99.90
16966;DHT22;8599;47.852;12.070;2023-05-19T08:13:50;12.90;99.90
16966;DHT22;8599;47.852;12.070;2023-05-19T08:16:17;12.80;99.90
16966;DHT22;8599;47.852;12.070;2023-05-19T08:18:43;12.80;99.90
16966;DHT22;8599;47.852;12.070;2023-05-19T08:21:12;12.90;99.90
16966;DHT22;8599;47.852;12.070;2023-05-19T08:23:39;13.00;99.90
16966;DHT22;8599;47.852;12.070;2023-05-19T08:26:05;13.00;99.90
16966;DHT22;8599;47.852;12.070;2023-05-19T08:28:32;13.20;99.90
16966;DHT22;8599;47.852;12.070;2023-05-19T08:30:59;13.50;99.90
16966;DHT22;8599;47.852;12.070;2023-05-19T08:33:26;13.40;99.90
16966;DHT22;8599;47.852;12.070;2023-05-19T08:35:54;13.50;99.90
16966;DHT22;8599;47.852;12.070;2023-05-19T08:38:23;13.60;99.90
16966;DHT22;8599;47.852;12.070;2023-05-19T08:40:50;13.70;99.90
16966;DHT22;8599;47.852;12.070;2023-05-19T08:43:17;13.60;99.90
16966;DHT22;8599;47.852;12.070;2023-05-19T08:45:44;13.50;99.90
16966;DHT22;8599;47.852;12.070;2023-05-19T08:48:13;13.40;99.90
16966;DHT22;8599;47.852;12.070;2023-05-19T08:50:40;13.40;99.90
16966;DHT22;8599;47.852;12.070;2023-05-19T08:53:16;13.50;99.90
16966;DHT22;8599;47.852;12.070;2023-05-19T08:55:52;13.70;99.90
16966;DHT22;8599;47.852;12.070;2023-05-19T08:58:23;13.90;99.90
16966;DHT22;8599;47.852;12.070;2023-05-19T09:00:51;14.10;99.90
16966;DHT22;8599;47.852;12.070;2023-05-19T09:03:19;13.80;99.90
16966;DHT22;8599;47.852;12.070;2023-05-19T09:05:47;13.70;99.90
16966;DHT22;8599;47.852;12.070;2023-05-19T09:08:14;13.80;99.90
16966;DHT22;8599;47.852;12.070;2023-05-19T09:10:40;13.90;99.90
16966;DHT22;8599;47.852;12.070;2023-05-19T09:13:09;13.90;99.90
16966;DHT22;8599;47.852;12.070;2023-05-19T09:15:38;13.90;99.90
16966;DHT22;8599;47.852;12.070;2023-05-19T09:18:06;13.90;99.90
16966;DHT22;8599;47.852;12.070;2023-05-19T09:20:36;13.80;99.90
16966;DHT22;8599;47.852;12.070;2023-05-19T09:23:04;13.70;99.90
16966;DHT22;8599;47.852;12.070;2023-05-19T09:25:31;13.60;99.90
16966;DHT22;8599;47.852;12.070;2023-05-19T09:27:57;13.50;99.90
16966;DHT22;8599;47.852;12.070;2023-05-19T09:30:26;13.30;99.90
16966;DHT22;8599;47.852;12.070;2023-05-19T09:32:52;13.30;99.90
16966;DHT22;8599;47.852;12.070;2023-05-19T09:35:19;13.30;99.90
16966;DHT22;8599;47.852;12.070;2023-05-19T09:37:46;13.20;99.90
16966;DHT22;8599;47.852;12.070;2023-05-19T09:40:14;13.10;99.90
16966;DHT22;8599;47.852;12.070;2023-05-19T09:42:41;13.10;99.90
16966;DHT22;8599;47.852;12.070;2023-05-19T09:45:09;13.20;99.90
16966;DHT22;8599;47.852;12.070;2023-05-19T09:47:38;13.20;99.90
16966;DHT22;8599;47.852;12.070;2023-05-19T09:50:08;13.40;99.90
16966;DHT22;8599;47.852;12.070;2023-05-19T09:52:35;13.40;99.90
16966;DHT22;8599;47.852;12.070;2023-05-19T09:55:03;13.40;99.90
16966;DHT22;8599;47.852;12.070;2023-05-19T09:57:35;13.60;99.90
16966;DHT22;8599;47.852;12.070;2023-05-19T10:00:07;13.70;99.90
16966;DHT22;8599;47.852;12.070;2023-05-19T10:02:42;13.80;99.90
16966;DHT22;8599;47.852;12.070;2023-05-19T10:05:11;13.80;99.90
16966;DHT22;8599;47.852;12.070;2023-05-19T10:07:41;13.80;99.90
16966;DHT22;8599;47.852;12.070;2023-05-19T10:10:11;13.90;99.90
16966;DHT22;8599;47.852;12.070;2023-05-19T10:12:38;14.10;99.90
16966;DHT22;8599;47.852;12.070;2023-05-19T10:15:08;14.10;99.90
16966;DHT22;8599;47.852;12.070;2023-05-19T10:17:37;13.90;99.90
16966;DHT22;8599;47.852;12.070;2023-05-19T10:20:08;14.10;99.90
16966;DHT22;8599;47.852;12.070;2023-05-19T10:22:37;14.10;99.90
16966;DHT22;8599;47.852;12.070;2023-05-19T10:25:04;14.00;99.90
16966;DHT22;8599;47.852;12.070;2023-05-19T10:27:34;14.10;99.90
16966;DHT22;8599;47.852;12.070;2023-05-19T10:30:06;14.20;99.90
16966;DHT22;8599;47.852;12.070;2023-05-19T10:32:35;14.30;99.90
16966;DHT22;8599;47.852;12.070;2023-05-19T10:35:34;14.30;99.90
16966;DHT22;8599;47.852;12.070;2023-05-19T10:38:14;14.20;99.90
16966;DHT22;8599;47.852;12.070;2023-05-19T10:40:51;14.00;99.90
16966;DHT22;8599;47.852;12.070;2023-05-19T10:43:29;14.00;99.90
16966;DHT22;8599;47.852;12.070;2023-05-19T10:46:03;14.10;99.90
16966;DHT22;8599;47.852;12.070;2023-05-19T10:48:32;14.20;99.90
16966;DHT22;8599;47.852;12.070;2023-05-19T10:51:02;14.20;99.90
16966;DHT22;8599;47.852;12.070;2023-05-19T10:53:30;14.20;99.90
16966;DHT22;8599;47.852;12.070;2023-05-19T10:56:00;14.30;99.90
16966;DHT22;8599;47.852;12.070;2023-05-19T10:58:39;14.50;99.90
16966;DHT22;8599;47.852;12.070;2023-05-19T11:01:06;14.60;99.90
16966;DHT22;8599;47.852;12.070;2023-05-19T11:03:48;14.90;99.90
16966;DHT22;8599;47.852;12.070;2023-05-19T11:06:28;14.90;99.90
16966;DHT22;8599;47.852;12.070;2023-05-19T11:08:57;14.70;99.90
16966;DHT22;8599;47.852;12.070;2023-05-19T11:11:25;14.60;99.90
16966;DHT22;8599;47.852;12.070;2023-05-19T11:13:53;14.60;99.90
16966;DHT22;8599;47.852;12.070;2023-05-19T11:16:27;14.60;99.90
16966;DHT22;8599;47.852;12.070;2023-05-19T11:18:58;14.50;99.90
16966;DHT22;8599;47.852;12.070;2023-05-19T11:21:40;14.50;99.90
16966;DHT22;8599;47.852;12.070;2023-05-19T11:24:07;14.50;99.90
16966;DHT22;8599;47.852;12.070;2023-05-19T11:26:40;14.30;99.90
16966;DHT22;8599;47.852;12.070;2023-05-19T11:29:08;14.40;99.90
16966;DHT22;8599;47.852;12.070;2023-05-19T11:31:36;14.20;99.90
16966;DHT22;8599;47.852;12.070;2023-05-19T11:34:05;14.20;99.90
16966;DHT22;8599;47.852;12.070;2023-05-19T11:36:32;14.10;99.90
16966;DHT22;8599;47.852;12.070;2023-05-19T11:39:03;14.10;99.90
16966;DHT22;8599;47.852;12.070;2023-05-19T11:41:31;14.10;99.90
16966;DHT22;8599;47.852;12.070;2023-05-19T11:43:58;14.20;99.90
16966;DHT22;8599;47.852;12.070;2023-05-19T11:46:25;14.40;99.90
16966;DHT22;8599;47.852;12.070;2023-05-19T11:48:52;14.30;99.90
16966;DHT22;8599;47.852;12.070;2023-05-19T11:51:20;14.10;99.90
16966;DHT22;8599;47.852;12.070;2023-05-19T11:53:49;14.10;99.90
16966;DHT22;8599;47.852;12.070;2023-05-19T11:56:17;14.30;99.90
16966;DHT22;8599;47.852;12.070;2023-05-19T11:58:44;14.30;99.90
16966;DHT22;8599;47.852;12.070;2023-05-19T12:01:10;14.40;99.90
16966;DHT22;8599;47.852;12.070;2023-05-19T12:03:38;14.50;99.90
16966;DHT22;8599;47.852;12.070;2023-05-19T12:06:05;14.50;99.90
16966;DHT22;8599;47.852;12.070;2023-05-19T12:08:34;14.50;99.90
16966;DHT22;8599;47.852;12.070;2023-05-19T12:11:01;14.40;99.90
16966;DHT22;8599;47.852;12.070;2023-05-19T12:13:29;14.40;99.90
16966;DHT22;8599;47.852;12.070;2023-05-19T12:15:58;14.40;99.90
16966;DHT22;8599;47.852;12.070;2023-05-19T12:18:28;14.30;99.90
16966;DHT22;8599;47.852;12.070;2023-05-19T12:20:56;14.40;99.90
16966;DHT22;8599;47.852;12.070;2023-05-19T12:23:23;14.40;99.90
16966;DHT22;8599;47.852;12.070;2023-05-19T12:25:50;14.40;99.90
16966;DHT22;8599;47.852;12.070;2023-05-19T12:28:18;14.30;99.90
16966;DHT22;8599;47.852;12.070;2023-05-19T12:30:49;14.30;99.90
16966;DHT22;8599;47.852;12.070;2023-05-19T12:33:16;14.50;99.90
16966;DHT22;8599;47.852;12.070;2023-05-19T12:35:44;14.60;99.90
16966;DHT22;8599;47.852;12.070;2023-05-19T12:38:13;14.50;99.90
16966;DHT22;8599;47.852;12.070;2023-05-19T12:40:41;14.50;99.90
16966;DHT22;8599;47.852;12.070;2023-05-19T12:43:08;14.60;99.90
16966;DHT22;8599;47.852;12.070;2023-05-19T12:45:44;14.70;99.90
16966;DHT22;8599;47.852;12.070;2023-05-19T12:48:12;14.70;99.90
16966;DHT22;8599;47.852;12.070;2023-05-19T12:50:41;14.70;99.90
16966;DHT22;8599;47.852;12.070;2023-05-19T12:53:10;14.60;99.90
16966;DHT22;8599;47.852;12.070;2023-05-19T12:55:38;14.50;99.90
16966;DHT22;8599;47.852;12.070;2023-05-19T12:58:09;14.50;99.90
16966;DHT22;8599;47.852;12.070;2023-05-19T13:00:39;14.50;99.90
16966;DHT22;8599;47.852;12.070;2023-05-19T13:03:07;14.50;99.90
16966;DHT22;8599;47.852;12.070;2023-05-19T13:05:37;14.60;99.90
16966;DHT22;8599;47.852;12.070;2023-05-19T13:08:05;14.70;99.90
16966;DHT22;8599;47.852;12.070;2023-05-19T13:10:34;14.80;99.90
16966;DHT22;8599;47.852;12.070;2023-05-19T13:13:01;14.80;99.90
16966;DHT22;8599;47.852;12.070;2023-05-19T13:15:29;14.80;99.90
16966;DHT22;8599;47.852;12.070;2023-05-19T13:17:59;14.90;99.90
16966;DHT22;8599;47.852;12.070;2023-05-19T13:20:26;14.90;99.90
16966;DHT22;8599;47.852;12.070;2023-05-19T13:22:55;15.00;99.90
16966;DHT22;8599;47.852;12.070;2023-05-19T13:25:22;15.00;99.90
16966;DHT22;8599;47.852;12.070;2023-05-19T13:27:49;14.90;99.90
16966;DHT22;8599;47.852;12.070;2023-05-19T13:30:17;14.80;99.90
16966;DHT22;8599;47.852;12.070;2023-05-19T13:32:44;14.70;99.90
16966;DHT22;8599;47.852;12.070;2023-05-19T13:35:12;14.60;99.90
16966;DHT22;8599;47.852;12.070;2023-05-19T13:37:39;14.60;99.90
16966;DHT22;8599;47.852;12.070;2023-05-19T13:40:09;14.60;99.90
16966;DHT22;8599;47.852;12.070;2023-05-19T13:42:36;14.60;99.90
16966;DHT22;8599;47.852;12.070;2023-05-19T13:45:03;14.60;99.90
16966;DHT22;8599;47.852;12.070;2023-05-19T13:47:30;14.60;99.90
16966;DHT22;8599;47.852;12.070;2023-05-19T13:49:57;14.60;99.90
16966;DHT22;8599;47.852;12.070;2023-05-19T13:52:24;14.60;99.90
16966;DHT22;8599;47.852;12.070;2023-05-19T13:54:51;14.50;99.90
16966;DHT22;8599;47.852;12.070;2023-05-19T13:57:20;14.40;99.90
16966;DHT22;8599;47.852;12.070;2023-05-19T13:59:47;14.50;99.90
16966;DHT22;8599;47.852;12.070;2023-05-19T14:02:17;14.50;99.90
16966;DHT22;8599;47.852;12.070;2023-05-19T14:04:43;14.60;99.90
16966;DHT22;8599;47.852;12.070;2023-05-19T14:07:10;14.70;99.90
16966;DHT22;8599;47.852;12.070;2023-05-19T14:09:37;14.80;99.90
16966;DHT22;8599;47.852;12.070;2023-05-19T14:12:04;14.90;99.90
16966;DHT22;8599;47.852;12.070;2023-05-19T14:14:33;14.90;99.90
16966;DHT22;8599;47.852;12.070;2023-05-19T14:16:59;14.80;99.90
16966;DHT22;8599;47.852;12.070;2023-05-19T14:19:26;14.70;99.90
16966;DHT22;8599;47.852;12.070;2023-05-19T14:21:54;14.70;99.90
16966;DHT22;8599;47.852;12.070;2023-05-19T14:24:21;14.80;99.90
16966;DHT22;8599;47.852;12.070;2023-05-19T14:26:48;14.80;99.90
16966;DHT22;8599;47.852;12.070;2023-05-19T14:29:15;14.80;99.90
16966;DHT22;8599;47.852;12.070;2023-05-19T14:31:44;15.00;99.90
16966;DHT22;8599;47.852;12.070;2023-05-19T14:34:10;15.10;99.90
16966;DHT22;8599;47.852;12.070;2023-05-19T14:36:37;15.20;99.90
16966;DHT22;8599;47.852;12.070;2023-05-19T14:39:04;15.30;99.90
16966;DHT22;8599;47.852;12.070;2023-05-19T14:41:31;15.30;99.90
16966;DHT22;8599;47.852;12.070;2023-05-19T14:43:57;15.30;99.90
16966;DHT22;8599;47.852;12.070;2023-05-19T14:46:24;15.30;99.90
16966;DHT22;8599;47.852;12.070;2023-05-19T14:48:52;15.10;99.90
16966;DHT22;8599;47.852;12.070;2023-05-19T14:51:19;15.20;99.90
16966;DHT22;8599;47.852;12.070;2023-05-19T14:53:46;15.10;99.90
16966;DHT22;8599;47.852;12.070;2023-05-19T14:56:14;15.20;99.90
16966;DHT22;8599;47.852;12.070;2023-05-19T14:58:41;15.20;99.90
16966;DHT22;8599;47.852;12.070;2023-05-19T15:01:08;15.30;99.90
16966;DHT22;8599;47.852;12.070;2023-05-19T15:03:36;15.30;99.90
16966;DHT22;8599;47.852;12.070;2023-05-19T15:06:07;15.40;99.90
16966;DHT22;8599;47.852;12.070;2023-05-19T15:08:35;15.40;99.90
16966;DHT22;8599;47.852;12.070;2023-05-19T15:11:02;15.50;99.90
16966;DHT22;8599;47.852;12.070;2023-05-19T15:13:28;15.60;99.90
16966;DHT22;8599;47.852;12.070;2023-05-19T15:15:55;15.80;99.90
16966;DHT22;8599;47.852;12.070;2023-05-19T15:18:22;15.60;99.90
16966;DHT22;8599;47.852;12.070;2023-05-19T15:20:50;15.70;99.90
16966;DHT22;8599;47.852;12.070;2023-05-19T15:23:18;15.70;99.90
16966;DHT22;8599;47.852;12.070;2023-05-19T15:25:45;15.70;99.90
16966;DHT22;8599;47.852;12.070;2023-05-19T15:28:12;15.60;99.90
16966;DHT22;8599;47.852;12.070;2023-05-19T15:30:41;15.50;99.90
16966;DHT22;8599;47.852;12.070;2023-05-19T15:33:09;15.60;99.90
16966;DHT22;8599;47.852;12.070;2023-05-19T15:35:36;15.60;99.90
16966;DHT22;8599;47.852;12.070;2023-05-19T15:38:03;15.60;99.90
16966;DHT22;8599;47.852;12.070;2023-05-19T15:40:32;15.50;99.90